sensor_id;sensor_type;location;lat;lon;timestamp;temperature;humidity
34135;DHT22;20410;55.578;12.968;2023-06-26T00:01:15;19.60;1.00
34135;DHT22;20410;55.578;12.968;2023-06-26T00:03:41;19.50;1.00
34135;DHT22;20410;55.578;12.968;2023-06-26T00:06:06;19.60;1.00
34135;DHT22;20410;55.578;12.968;2023-06-26T00:08:32;19.60;1.00
34135;DHT22;20410;55.578;12.968;2023-06-26T00:10:57;19.60;1.00
34135;DHT22;20410;55.578;12.968;2023-06-26T00:13:24;19.50;1.00
34135;DHT22;20410;55.578;12.968;2023-06-26T00:15:50;19.50;1.00
34135;DHT22;20410;55.578;12.968;2023-06-26T00:18:16;19.40;1.00
34135;DHT22;20410;55.578;12.968;2023-06-26T00:20:42;19.30;1.00
34135;DHT22;20410;55.578;12.968;2023-06-26T00:23:07;19.30;1.00
34135;DHT22;20410;55.578;12.968;2023-06-26T00:25:34;19.20;1.00
34135;DHT22;20410;55.578;12.968;2023-06-26T00:27:59;19.20;1.00
34135;DHT22;20410;55.578;12.968;2023-06-26T00:30:25;19.10;1.00
34135;DHT22;20410;55.578;12.968;2023-06-26T00:32:51;19.20;1.00
34135;DHT22;20410;55.578;12.968;2023-06-26T00:35:17;19.30;1.00
34135;DHT22;20410;55.578;12.968;2023-06-26T00:37:42;19.40;1.00
34135;DHT22;20410;55.578;12.968;2023-06-26T00:40:08;19.30;1.00
34135;DHT22;20410;55.578;12.968;2023-06-26T00:42:34;19.20;1.00
34135;DHT22;20410;55.578;12.968;2023-06-26T00:45:00;19.20;1.00
34135;DHT22;20410;55.578;12.968;2023-06-26T00:47:26;19.20;1.00
34135;DHT22;20410;55.578;12.968;2023-06-26T00:49:52;19.30;1.00
34135;DHT22;20410;55.578;12.968;2023-06-26T00:52:17;19.30;1.00
34135;DHT22;20410;55.578;12.968;2023-06-26T00:54:43;19.30;1.00
34135;DHT22;20410;55.578;12.968;2023-06-26T00:57:09;19.30;1.00
34135;DHT22;20410;55.578;12.968;2023-06-26T00:59:35;19.30;1.00
34135;DHT22;20410;55.578;12.968;2023-06-26T01:02:01;19.30;1.00
34135;DHT22;20410;55.578;12.968;2023-06-26T01:04:27;19.40;1.00
34135;DHT22;20410;55.578;12.968;2023-06-26T01:06:54;19.30;1.00
34135;DHT22;20410;55.578;12.968;2023-06-26T01:09:21;19.40;1.00
34135;DHT22;20410;55.578;12.968;2023-06-26T01:11:48;19.40;1.00
34135;DHT22;20410;55.578;12.968;2023-06-26T01:14:13;19.40;1.00
34135;DHT22;20410;55.578;12.968;2023-06-26T01:16:40;19.30;1.00
34135;DHT22;20410;55.578;12.968;2023-06-26T01:19:13;19.40;1.00
34135;DHT22;20410;55.578;12.968;2023-06-26T01:21:43;19.40;1.00
34135;DHT22;20410;55.578;12.968;2023-06-26T01:24:18;19.40;1.00
34135;DHT22;20410;55.578;12.968;2023-06-26T01:26:49;19.40;1.00
34135;DHT22;20410;55.578;12.968;2023-06-26T01:29:17;19.40;1.00
34135;DHT22;20410;55.578;12.968;2023-06-26T01:31:44;19.40;1.00
34135;DHT22;20410;55.578;12.968;2023-06-26T01:34:12;19.40;12.10
34135;DHT22;20410;55.578;12.968;2023-06-26T01:36:38;19.40;19.80
34135;DHT22;20410;55.578;12.968;2023-06-26T01:39:03;19.40;13.60
34135;DHT22;20410;55.578;12.968;2023-06-26T01:41:29;19.40;12.20
34135;DHT22;20410;55.578;12.968;2023-06-26T01:44:01;19.30;22.30
34135;DHT22;20410;55.578;12.968;2023-06-26T01:46:50;19.30;20.10
34135;DHT22;20410;55.578;12.968;2023-06-26T01:57:21;19.30;32.10
34135;DHT22;20410;55.578;12.968;2023-06-26T01:59:48;19.40;30.90
34135;DHT22;20410;55.578;12.968;2023-06-26T02:02:15;19.40;33.80
34135;DHT22;20410;55.578;12.968;2023-06-26T02:04:41;19.40;21.20
34135;DHT22;20410;55.578;12.968;2023-06-26T02:07:07;19.40;29.30
34135;DHT22;20410;55.578;12.968;2023-06-26T02:09:34;19.40;45.20
34135;DHT22;20410;55.578;12.968;2023-06-26T02:12:00;19.40;61.10
34135;DHT22;20410;55.578;12.968;2023-06-26T02:14:26;19.40;61.40
34135;DHT22;20410;55.578;12.968;2023-06-26T02:16:51;19.40;58.20
34135;DHT22;20410;55.578;12.968;2023-06-26T02:19:17;19.30;55.00
34135;DHT22;20410;55.578;12.968;2023-06-26T02:21:48;19.40;36.70
34135;DHT22;20410;55.578;12.968;2023-06-26T02:24:14;19.40;35.10
34135;DHT22;20410;55.578;12.968;2023-06-26T02:26:40;19.40;28.70
34135;DHT22;20410;55.578;12.968;2023-06-26T02:29:05;19.40;19.60
34135;DHT22;20410;55.578;12.968;2023-06-26T02:31:31;19.30;17.50
34135;DHT22;20410;55.578;12.968;2023-06-26T02:33:57;19.40;5.20
34135;DHT22;20410;55.578;12.968;2023-06-26T02:36:23;19.40;8.90
34135;DHT22;20410;55.578;12.968;2023-06-26T02:38:48;19.40;10.40
34135;DHT22;20410;55.578;12.968;2023-06-26T02:41:14;19.40;10.70
34135;DHT22;20410;55.578;12.968;2023-06-26T02:43:39;19.40;10.50
34135;DHT22;20410;55.578;12.968;2023-06-26T02:46:05;19.40;11.50
34135;DHT22;20410;55.578;12.968;2023-06-26T02:48:30;19.50;11.40
34135;DHT22;20410;55.578;12.968;2023-06-26T02:50:56;19.50;7.80
34135;DHT22;20410;55.578;12.968;2023-06-26T02:53:22;19.40;1.00
34135;DHT22;20410;55.578;12.968;2023-06-26T02:55:47;19.50;1.70
34135;DHT22;20410;55.578;12.968;2023-06-26T02:58:13;19.50;4.90
34135;DHT22;20410;55.578;12.968;2023-06-26T03:00:38;19.50;3.10
34135;DHT22;20410;55.578;12.968;2023-06-26T03:03:07;19.50;1.00
34135;DHT22;20410;55.578;12.968;2023-06-26T03:05:33;19.60;1.40
34135;DHT22;20410;55.578;12.968;2023-06-26T03:07:58;19.60;1.00
34135;DHT22;20410;55.578;12.968;2023-06-26T03:10:24;19.60;3.60
34135;DHT22;20410;55.578;12.968;2023-06-26T03:12:50;19.60;4.70
34135;DHT22;20410;55.578;12.968;2023-06-26T03:15:15;19.60;12.00
34135;DHT22;20410;55.578;12.968;2023-06-26T03:17:41;19.70;15.70
34135;DHT22;20410;55.578;12.968;2023-06-26T03:20:07;19.70;18.60
34135;DHT22;20410;55.578;12.968;2023-06-26T03:22:33;19.70;16.30
34135;DHT22;20410;55.578;12.968;2023-06-26T03:24:59;19.80;16.30
34135;DHT22;20410;55.578;12.968;2023-06-26T03:27:25;19.80;11.80
34135;DHT22;20410;55.578;12.968;2023-06-26T03:29:52;19.90;5.60
34135;DHT22;20410;55.578;12.968;2023-06-26T03:32:17;20.00;6.20
34135;DHT22;20410;55.578;12.968;2023-06-26T03:34:43;20.10;1.00
34135;DHT22;20410;55.578;12.968;2023-06-26T03:37:09;20.10;2.70
34135;DHT22;20410;55.578;12.968;2023-06-26T03:39:35;20.20;1.00
34135;DHT22;20410;55.578;12.968;2023-06-26T03:42:00;20.30;1.00
34135;DHT22;20410;55.578;12.968;2023-06-26T03:44:27;20.40;1.00
34135;DHT22;20410;55.578;12.968;2023-06-26T03:46:53;20.50;1.00
34135;DHT22;20410;55.578;12.968;2023-06-26T03:49:18;20.60;1.00
34135;DHT22;20410;55.578;12.968;2023-06-26T03:51:44;20.70;1.00
34135;DHT22;20410;55.578;12.968;2023-06-26T03:54:10;20.80;1.00
34135;DHT22;20410;55.578;12.968;2023-06-26T03:56:36;20.90;1.00
34135;DHT22;20410;55.578;12.968;2023-06-26T03:59:01;21.00;1.00
34135;DHT22;20410;55.578;12.968;2023-06-26T04:01:27;21.00;1.00
34135;DHT22;20410;55.578;12.968;2023-06-26T04:03:53;21.10;1.00
34135;DHT22;20410;55.578;12.968;2023-06-26T04:06:19;21.20;1.00
34135;DHT22;20410;55.578;12.968;2023-06-26T04:08:44;21.30;1.00
34135;DHT22;20410;55.578;12.968;2023-06-26T04:11:10;21.30;1.00
34135;DHT22;20410;55.578;12.968;2023-06-26T04:13:35;21.50;1.00
34135;DHT22;20410;55.578;12.968;2023-06-26T04:16:02;21.50;1.00
34135;DHT22;20410;55.578;12.968;2023-06-26T04:18:29;21.60;1.00
34135;DHT22;20410;55.578;12.968;2023-06-26T04:23:31;21.80;1.00
34135;DHT22;20410;55.578;12.968;2023-06-26T04:25:56;21.80;1.00
34135;DHT22;20410;55.578;12.968;2023-06-26T04:28:24;21.90;1.00
34135;DHT22;20410;55.578;12.968;2023-06-26T04:30:49;21.90;1.00
34135;DHT22;20410;55.578;12.968;2023-06-26T04:33:15;22.00;1.00
34135;DHT22;20410;55.578;12.968;2023-06-26T04:35:41;22.10;1.00
34135;DHT22;20410;55.578;12.968;2023-06-26T04:38:06;22.10;1.00
34135;DHT22;20410;55.578;12.968;2023-06-26T04:40:32;22.10;1.00
34135;DHT22;20410;55.578;12.968;2023-06-26T04:42:57;22.20;1.00
34135;DHT22;20410;55.578;12.968;2023-06-26T04:45:23;22.20;1.00
34135;DHT22;20410;55.578;12.968;2023-06-26T04:47:48;22.30;1.00
34135;DHT22;20410;55.578;12.968;2023-06-26T04:50:14;22.40;1.00
34135;DHT22;20410;55.578;12.968;2023-06-26T04:52:40;22.40;1.00
34135;DHT22;20410;55.578;12.968;2023-06-26T04:55:05;22.50;1.00
34135;DHT22;20410;55.578;12.968;2023-06-26T04:57:31;22.60;1.00
34135;DHT22;20410;55.578;12.968;2023-06-26T04:59:57;22.60;1.00
34135;DHT22;20410;55.578;12.968;2023-06-26T05:02:22;22.70;1.00
34135;DHT22;20410;55.578;12.968;2023-06-26T05:04:48;22.70;1.00
34135;DHT22;20410;55.578;12.968;2023-06-26T05:07:14;22.80;1.00
34135;DHT22;20410;55.578;12.968;2023-06-26T05:09:39;22.80;1.00
34135;DHT22;20410;55.578;12.968;2023-06-26T05:12:05;22.90;1.00
34135;DHT22;20410;55.578;12.968;2023-06-26T05:14:31;22.90;1.00
34135;DHT22;20410;55.578;12.968;2023-06-26T05:16:56;23.00;1.00
34135;DHT22;20410;55.578;12.968;2023-06-26T05:19:22;23.00;1.00
34135;DHT22;20410;55.578;12.968;2023-06-26T05:21:47;23.10;1.00
34135;DHT22;20410;55.578;12.968;2023-06-26T05:24:15;23.10;1.00
34135;DHT22;20410;55.578;12.968;2023-06-26T05:26:41;23.20;1.00
34135;DHT22;20410;55.578;12.968;2023-06-26T05:29:07;23.20;1.00
34135;DHT22;20410;55.578;12.968;2023-06-26T05:31:33;23.20;1.00
34135;DHT22;20410;55.578;12.968;2023-06-26T05:34:02;23.30;1.00
34135;DHT22;20410;55.578;12.968;2023-06-26T05:36:29;23.30;1.00
34135;DHT22;20410;55.578;12.968;2023-06-26T05:38:56;23.40;1.00
34135;DHT22;20410;55.578;12.968;2023-06-26T05:41:22;23.40;1.00
34135;DHT22;20410;55.578;12.968;2023-06-26T05:43:48;23.50;1.00
34135;DHT22;20410;55.578;12.968;2023-06-26T05:46:14;23.50;1.00
34135;DHT22;20410;55.578;12.968;2023-06-26T05:48:40;23.60;1.00
34135;DHT22;20410;55.578;12.968;2023-06-26T05:51:06;23.60;1.00
34135;DHT22;20410;55.578;12.968;2023-06-26T05:53:32;23.70;1.00
34135;DHT22;20410;55.578;12.968;2023-06-26T05:55:58;23.80;1.00
34135;DHT22;20410;55.578;12.968;2023-06-26T05:58:25;23.90;1.00
34135;DHT22;20410;55.578;12.968;2023-06-26T06:00:53;23.90;1.00
34135;DHT22;20410;55.578;12.968;2023-06-26T06:03:18;24.00;1.00
34135;DHT22;20410;55.578;12.968;2023-06-26T06:05:44;24.10;1.00
34135;DHT22;20410;55.578;12.968;2023-06-26T06:08:09;24.10;1.00
34135;DHT22;20410;55.578;12.968;2023-06-26T06:10:35;24.20;1.00
34135;DHT22;20410;55.578;12.968;2023-06-26T06:13:01;24.20;1.00
34135;DHT22;20410;55.578;12.968;2023-06-26T06:15:26;24.30;1.00
34135;DHT22;20410;55.578;12.968;2023-06-26T06:17:52;24.40;1.00
34135;DHT22;20410;55.578;12.968;2023-06-26T06:20:18;24.40;1.00
34135;DHT22;20410;55.578;12.968;2023-06-26T06:22:46;24.50;1.00
34135;DHT22;20410;55.578;12.968;2023-06-26T06:25:14;24.60;1.00
34135;DHT22;20410;55.578;12.968;2023-06-26T06:27:39;24.60;1.00
34135;DHT22;20410;55.578;12.968;2023-06-26T06:30:05;24.70;1.00
34135;DHT22;20410;55.578;12.968;2023-06-26T06:32:31;24.80;1.00
34135;DHT22;20410;55.578;12.968;2023-06-26T06:34:57;24.80;1.00
34135;DHT22;20410;55.578;12.968;2023-06-26T06:37:22;24.90;1.00
34135;DHT22;20410;55.578;12.968;2023-06-26T06:39:48;24.90;1.00
34135;DHT22;20410;55.578;12.968;2023-06-26T06:42:14;25.00;1.00
34135;DHT22;20410;55.578;12.968;2023-06-26T06:44:39;25.10;1.00
34135;DHT22;20410;55.578;12.968;2023-06-26T06:47:05;25.20;1.00
34135;DHT22;20410;55.578;12.968;2023-06-26T06:49:30;25.20;1.00
34135;DHT22;20410;55.578;12.968;2023-06-26T06:51:56;25.20;1.00
34135;DHT22;20410;55.578;12.968;2023-06-26T06:54:22;25.20;1.00
34135;DHT22;20410;55.578;12.968;2023-06-26T06:56:47;25.20;1.00
34135;DHT22;20410;55.578;12.968;2023-06-26T06:59:13;25.40;1.00
34135;DHT22;20410;55.578;12.968;2023-06-26T07:01:39;25.50;1.00
34135;DHT22;20410;55.578;12.968;2023-06-26T07:04:05;25.60;1.00
34135;DHT22;20410;55.578;12.968;2023-06-26T07:06:30;25.70;1.00
34135;DHT22;20410;55.578;12.968;2023-06-26T07:08:56;25.80;1.00
34135;DHT22;20410;55.578;12.968;2023-06-26T07:11:22;25.90;1.00
34135;DHT22;20410;55.578;12.968;2023-06-26T07:13:47;26.00;1.00
34135;DHT22;20410;55.578;12.968;2023-06-26T07:16:13;26.00;1.00
34135;DHT22;20410;55.578;12.968;2023-06-26T07:18:40;26.00;1.00
34135;DHT22;20410;55.578;12.968;2023-06-26T07:21:05;26.10;1.00
34135;DHT22;20410;55.578;12.968;2023-06-26T07:23:31;26.20;1.00
34135;DHT22;20410;55.578;12.968;2023-06-26T07:25:57;26.30;1.00
34135;DHT22;20410;55.578;12.968;2023-06-26T07:28:22;26.40;1.00
34135;DHT22;20410;55.578;12.968;2023-06-26T07:30:48;26.60;1.00
34135;DHT22;20410;55.578;12.968;2023-06-26T07:33:14;26.70;1.00
34135;DHT22;20410;55.578;12.968;2023-06-26T07:35:40;26.80;1.00
34135;DHT22;20410;55.578;12.968;2023-06-26T07:38:05;26.90;1.00
34135;DHT22;20410;55.578;12.968;2023-06-26T07:40:31;27.10;1.00
34135;DHT22;20410;55.578;12.968;2023-06-26T07:42:57;27.10;1.00
34135;DHT22;20410;55.578;12.968;2023-06-26T07:45:23;27.20;1.00
34135;DHT22;20410;55.578;12.968;2023-06-26T07:47:49;27.30;1.00
34135;DHT22;20410;55.578;12.968;2023-06-26T07:50:15;27.40;1.00
34135;DHT22;20410;55.578;12.968;2023-06-26T07:52:46;27.50;1.00
34135;DHT22;20410;55.578;12.968;2023-06-26T07:55:12;27.60;1.00
34135;DHT22;20410;55.578;12.968;2023-06-26T07:57:37;27.70;1.00
34135;DHT22;20410;55.578;12.968;2023-06-26T08:00:03;27.70;1.00
34135;DHT22;20410;55.578;12.968;2023-06-26T08:02:32;27.70;1.00
34135;DHT22;20410;55.578;12.968;2023-06-26T08:04:57;27.70;1.00
34135;DHT22;20410;55.578;12.968;2023-06-26T08:07:23;27.80;1.00
34135;DHT22;20410;55.578;12.968;2023-06-26T08:09:48;27.80;1.00
34135;DHT22;20410;55.578;12.968;2023-06-26T08:12:14;27.90;1.00
34135;DHT22;20410;55.578;12.968;2023-06-26T08:14:40;28.10;1.00
34135;DHT22;20410;55.578;12.968;2023-06-26T08:17:05;28.20;1.00
34135;DHT22;20410;55.578;12.968;2023-06-26T08:19:31;28.30;99.90
34135;DHT22;20410;55.578;12.968;2023-06-26T08:21:56;28.40;99.90
34135;DHT22;20410;55.578;12.968;2023-06-26T08:24:22;28.40;99.90
34135;DHT22;20410;55.578;12.968;2023-06-26T08:26:48;28.40;99.90
34135;DHT22;20410;55.578;12.968;2023-06-26T08:29:14;28.50;99.90
34135;DHT22;20410;55.578;12.968;2023-06-26T08:31:42;28.50;99.90
34135;DHT22;20410;55.578;12.968;2023-06-26T08:34:08;28.50;99.90
34135;DHT22;20410;55.578;12.968;2023-06-26T08:36:33;28.40;99.90
34135;DHT22;20410;55.578;12.968;2023-06-26T08:38:59;28.50;99.90
34135;DHT22;20410;55.578;12.968;2023-06-26T08:41:25;28.60;99.90
34135;DHT22;20410;55.578;12.968;2023-06-26T08:43:50;28.60;99.90
34135;DHT22;20410;55.578;12.968;2023-06-26T08:46:18;28.70;99.90
34135;DHT22;20410;55.578;12.968;2023-06-26T08:48:49;28.70;99.90
34135;DHT22;20410;55.578;12.968;2023-06-26T08:51:17;28.80;99.90
34135;DHT22;20410;55.578;12.968;2023-06-26T08:53:59;28.90;99.90
34135;DHT22;20410;55.578;12.968;2023-06-26T08:56:40;29.00;99.90
34135;DHT22;20410;55.578;12.968;2023-06-26T08:59:07;29.10;99.90
34135;DHT22;20410;55.578;12.968;2023-06-26T09:01:36;29.20;99.90
34135;DHT22;20410;55.578;12.968;2023-06-26T09:04:02;29.30;99.90
34135;DHT22;20410;55.578;12.968;2023-06-26T09:06:28;29.30;99.90
34135;DHT22;20410;55.578;12.968;2023-06-26T09:08:54;29.20;99.90
34135;DHT22;20410;55.578;12.968;2023-06-26T09:11:20;29.20;99.90
34135;DHT22;20410;55.578;12.968;2023-06-26T09:13:46;29.30;99.90
34135;DHT22;20410;55.578;12.968;2023-06-26T09:16:13;29.30;99.90
34135;DHT22;20410;55.578;12.968;2023-06-26T09:18:40;29.40;99.90
34135;DHT22;20410;55.578;12.968;2023-06-26T09:21:08;29.30;99.90
34135;DHT22;20410;55.578;12.968;2023-06-26T09:23:35;29.30;99.90
34135;DHT22;20410;55.578;12.968;2023-06-26T09:26:05;29.30;99.90
34135;DHT22;20410;55.578;12.968;2023-06-26T09:28:32;29.30;99.90
34135;DHT22;20410;55.578;12.968;2023-06-26T09:31:05;29.40;99.90
34135;DHT22;20410;55.578;12.968;2023-06-26T09:33:39;29.40;99.90
34135;DHT22;20410;55.578;12.968;2023-06-26T09:36:08;29.50;99.90
34135;DHT22;20410;55.578;12.968;2023-06-26T09:38:35;29.60;99.90
34135;DHT22;20410;55.578;12.968;2023-06-26T09:41:02;29.70;99.90
34135;DHT22;20410;55.578;12.968;2023-06-26T09:43:28;29.70;99.90
34135;DHT22;20410;55.578;12.968;2023-06-26T09:45:53;29.70;99.90
34135;DHT22;20410;55.578;12.968;2023-06-26T09:48:20;29.90;99.90
34135;DHT22;20410;55.578;12.968;2023-06-26T09:50:46;30.00;99.90
34135;DHT22;20410;55.578;12.968;2023-06-26T09:53:13;30.10;99.90
34135;DHT22;20410;55.578;12.968;2023-06-26T09:55:39;30.20;99.90
34135;DHT22;20410;55.578;12.968;2023-06-26T09:58:11;30.10;99.90
34135;DHT22;20410;55.578;12.968;2023-06-26T10:00:43;30.30;99.90
34135;DHT22;20410;55.578;12.968;2023-06-26T10:03:10;30.30;99.90
34135;DHT22;20410;55.578;12.968;2023-06-26T10:05:38;30.40;99.90
34135;DHT22;20410;55.578;12.968;2023-06-26T10:08:05;30.50;99.90
34135;DHT22;20410;55.578;12.968;2023-06-26T10:10:32;30.50;99.90
34135;DHT22;20410;55.578;12.968;2023-06-26T10:13:07;30.50;99.90
34135;DHT22;20410;55.578;12.968;2023-06-26T10:15:34;30.40;99.90
34135;DHT22;20410;55.578;12.968;2023-06-26T10:18:00;30.40;99.90
34135;DHT22;20410;55.578;12.968;2023-06-26T10:20:26;30.40;99.90
34135;DHT22;20410;55.578;12.968;2023-06-26T10:22:55;30.50;99.90
34135;DHT22;20410;55.578;12.968;2023-06-26T10:25:24;30.60;99.90
34135;DHT22;20410;55.578;12.968;2023-06-26T10:27:58;30.60;99.90
34135;DHT22;20410;55.578;12.968;2023-06-26T10:30:28;30.80;99.90
34135;DHT22;20410;55.578;12.968;2023-06-26T10:32:56;30.90;99.90
34135;DHT22;20410;55.578;12.968;2023-06-26T10:35:24;30.90;99.90
34135;DHT22;20410;55.578;12.968;2023-06-26T10:37:50;30.90;99.90
34135;DHT22;20410;55.578;12.968;2023-06-26T10:40:25;30.90;99.90
34135;DHT22;20410;55.578;12.968;2023-06-26T10:42:51;31.00;99.90
34135;DHT22;20410;55.578;12.968;2023-06-26T10:45:17;31.20;99.90
34135;DHT22;20410;55.578;12.968;2023-06-26T10:47:47;31.20;99.90
34135;DHT22;20410;55.578;12.968;2023-06-26T10:50:23;30.90;99.90
34135;DHT22;20410;55.578;12.968;2023-06-26T10:55:48;30.60;99.90
34135;DHT22;20410;55.578;12.968;2023-06-26T11:03:43;30.60;99.90
34135;DHT22;20410;55.578;12.968;2023-06-26T11:06:15;30.70;99.90
34135;DHT22;20410;55.578;12.968;2023-06-26T11:14:18;31.20;99.90
34135;DHT22;20410;55.578;12.968;2023-06-26T11:16:44;31.30;99.90
34135;DHT22;20410;55.578;12.968;2023-06-26T11:19:10;31.30;99.90
34135;DHT22;20410;55.578;12.968;2023-06-26T11:21:38;31.20;99.90
34135;DHT22;20410;55.578;12.968;2023-06-26T11:24:06;31.20;99.90
34135;DHT22;20410;55.578;12.968;2023-06-26T11:26:38;31.30;99.90
34135;DHT22;20410;55.578;12.968;2023-06-26T11:29:03;31.40;99.90
34135;DHT22;20410;55.578;12.968;2023-06-26T11:31:31;31.50;99.90
34135;DHT22;20410;55.578;12.968;2023-06-26T11:34:02;31.60;99.90
34135;DHT22;20410;55.578;12.968;2023-06-26T11:36:28;31.60;99.90
34135;DHT22;20410;55.578;12.968;2023-06-26T11:38:59;31.70;99.90
34135;DHT22;20410;55.578;12.968;2023-06-26T11:41:27;31.70;99.90
34135;DHT22;20410;55.578;12.968;2023-06-26T11:43:54;31.90;99.00
34135;DHT22;20410;55.578;12.968;2023-06-26T11:46:21;32.00;77.60
34135;DHT22;20410;55.578;12.968;2023-06-26T11:48:47;32.00;94.60
34135;DHT22;20410;55.578;12.968;2023-06-26T11:51:14;32.00;92.70
34135;DHT22;20410;55.578;12.968;2023-06-26T11:53:44;32.00;86.90
34135;DHT22;20410;55.578;12.968;2023-06-26T11:56:12;32.00;53.80
34135;DHT22;20410;55.578;12.968;2023-06-26T12:01:36;31.80;97.50
34135;DHT22;20410;55.578;12.968;2023-06-26T12:04:05;31.80;99.90
34135;DHT22;20410;55.578;12.968;2023-06-26T12:06:36;31.70;99.90
34135;DHT22;20410;55.578;12.968;2023-06-26T12:09:09;31.70;99.90
34135;DHT22;20410;55.578;12.968;2023-06-26T12:11:38;31.60;59.00
34135;DHT22;20410;55.578;12.968;2023-06-26T12:14:05;31.40;99.90
34135;DHT22;20410;55.578;12.968;2023-06-26T12:16:34;31.40;99.90
34135;DHT22;20410;55.578;12.968;2023-06-26T12:19:04;31.40;99.90
34135;DHT22;20410;55.578;12.968;2023-06-26T12:24:12;31.30;99.90
34135;DHT22;20410;55.578;12.968;2023-06-26T12:26:40;31.20;99.90
34135;DHT22;20410;55.578;12.968;2023-06-26T12:29:08;31.10;99.90
34135;DHT22;20410;55.578;12.968;2023-06-26T12:31:34;31.10;99.90
34135;DHT22;20410;55.578;12.968;2023-06-26T12:34:01;31.20;99.90
34135;DHT22;20410;55.578;12.968;2023-06-26T12:36:27;31.20;99.90
34135;DHT22;20410;55.578;12.968;2023-06-26T12:38:53;31.30;99.90
34135;DHT22;20410;55.578;12.968;2023-06-26T12:41:20;31.20;99.90
34135;DHT22;20410;55.578;12.968;2023-06-26T12:43:49;31.10;99.90
34135;DHT22;20410;55.578;12.968;2023-06-26T12:46:15;31.10;99.90
34135;DHT22;20410;55.578;12.968;2023-06-26T12:48:43;30.90;99.90
34135;DHT22;20410;55.578;12.968;2023-06-26T12:51:14;30.70;99.90
34135;DHT22;20410;55.578;12.968;2023-06-26T12:53:40;30.60;99.90
34135;DHT22;20410;55.578;12.968;2023-06-26T12:56:06;30.50;99.90
34135;DHT22;20410;55.578;12.968;2023-06-26T12:58:36;30.20;99.90
34135;DHT22;20410;55.578;12.968;2023-06-26T13:01:06;30.00;99.90
34135;DHT22;20410;55.578;12.968;2023-06-26T13:03:40;29.80;99.90
34135;DHT22;20410;55.578;12.968;2023-06-26T13:06:06;29.70;99.90
34135;DHT22;20410;55.578;12.968;2023-06-26T13:08:32;29.50;99.90
34135;DHT22;20410;55.578;12.968;2023-06-26T13:10:58;29.30;99.90
34135;DHT22;20410;55.578;12.968;2023-06-26T13:13:24;29.10;99.90
34135;DHT22;20410;55.578;12.968;2023-06-26T13:15:49;28.80;99.90
34135;DHT22;20410;55.578;12.968;2023-06-26T13:18:15;28.60;99.90
34135;DHT22;20410;55.578;12.968;2023-06-26T13:20:41;28.40;99.90
34135;DHT22;20410;55.578;12.968;2023-06-26T13:23:06;28.30;99.90
34135;DHT22;20410;55.578;12.968;2023-06-26T13:25:32;28.20;99.90
34135;DHT22;20410;55.578;12.968;2023-06-26T13:27:58;28.00;1.00
34135;DHT22;20410;55.578;12.968;2023-06-26T13:30:24;27.70;1.00
34135;DHT22;20410;55.578;12.968;2023-06-26T13:32:49;27.70;1.00
34135;DHT22;20410;55.578;12.968;2023-06-26T13:35:15;27.50;1.00
34135;DHT22;20410;55.578;12.968;2023-06-26T13:37:41;27.30;1.00
34135;DHT22;20410;55.578;12.968;2023-06-26T13:40:08;27.10;1.00
34135;DHT22;20410;55.578;12.968;2023-06-26T13:42:34;26.90;1.00
34135;DHT22;20410;55.578;12.968;2023-06-26T13:45:02;26.80;1.00
34135;DHT22;20410;55.578;12.968;2023-06-26T13:47:28;26.70;1.00
34135;DHT22;20410;55.578;12.968;2023-06-26T13:49:54;26.70;1.00
34135;DHT22;20410;55.578;12.968;2023-06-26T13:52:19;26.70;1.00
34135;DHT22;20410;55.578;12.968;2023-06-26T13:54:45;26.60;1.00
34135;DHT22;20410;55.578;12.968;2023-06-26T13:57:10;26.30;1.00
34135;DHT22;20410;55.578;12.968;2023-06-26T13:59:38;25.70;1.00
34135;DHT22;20410;55.578;12.968;2023-06-26T14:02:05;25.00;1.00
34135;DHT22;20410;55.578;12.968;2023-06-26T14:04:32;24.50;1.00
34135;DHT22;20410;55.578;12.968;2023-06-26T14:06:57;23.80;1.00
34135;DHT22;20410;55.578;12.968;2023-06-26T14:09:23;23.00;1.00
34135;DHT22;20410;55.578;12.968;2023-06-26T14:11:49;22.20;1.00
34135;DHT22;20410;55.578;12.968;2023-06-26T14:14:14;21.60;6.90
34135;DHT22;20410;55.578;12.968;2023-06-26T14:16:40;21.30;40.70
34135;DHT22;20410;55.578;12.968;2023-06-26T14:19:06;21.30;99.00
34135;DHT22;20410;55.578;12.968;2023-06-26T14:21:32;21.00;99.90
34135;DHT22;20410;55.578;12.968;2023-06-26T14:23:59;20.80;99.90
34135;DHT22;20410;55.578;12.968;2023-06-26T14:26:24;20.60;99.90
34135;DHT22;20410;55.578;12.968;2023-06-26T14:28:50;20.50;99.90
34135;DHT22;20410;55.578;12.968;2023-06-26T14:31:15;20.40;99.90
34135;DHT22;20410;55.578;12.968;2023-06-26T14:33:41;20.30;99.90
34135;DHT22;20410;55.578;12.968;2023-06-26T14:36:07;20.30;99.90
34135;DHT22;20410;55.578;12.968;2023-06-26T14:38:32;20.30;99.90
34135;DHT22;20410;55.578;12.968;2023-06-26T14:40:58;20.40;99.90
34135;DHT22;20410;55.578;12.968;2023-06-26T14:43:23;20.50;99.90
34135;DHT22;20410;55.578;12.968;2023-06-26T14:45:50;20.50;99.90
34135;DHT22;20410;55.578;12.968;2023-06-26T14:48:15;20.50;99.90
34135;DHT22;20410;55.578;12.968;2023-06-26T14:50:41;20.70;99.90
34135;DHT22;20410;55.578;12.968;2023-06-26T14:53:07;20.80;99.90
34135;DHT22;20410;55.578;12.968;2023-06-26T14:55:32;20.90;99.90
34135;DHT22;20410;55.578;12.968;2023-06-26T14:57:58;21.10;99.90
34135;DHT22;20410;55.578;12.968;2023-06-26T15:00:23;21.20;99.90
34135;DHT22;20410;55.578;12.968;2023-06-26T15:02:50;21.20;99.90
34135;DHT22;20410;55.578;12.968;2023-06-26T15:05:19;21.20;99.90
34135;DHT22;20410;55.578;12.968;2023-06-26T15:07:44;20.90;99.90
34135;DHT22;20410;55.578;12.968;2023-06-26T15:10:10;20.80;99.90
34135;DHT22;20410;55.578;12.968;2023-06-26T15:12:35;20.70;99.90
34135;DHT22;20410;55.578;12.968;2023-06-26T15:15:01;20.60;99.90
34135;DHT22;20410;55.578;12.968;2023-06-26T15:17:27;20.70;99.90
34135;DHT22;20410;55.578;12.968;2023-06-26T15:19:52;20.70;99.90
34135;DHT22;20410;55.578;12.968;2023-06-26T15:22:18;20.80;99.90
34135;DHT22;20410;55.578;12.968;2023-06-26T15:24:44;20.90;99.90
34135;DHT22;20410;55.578;12.968;2023-06-26T15:27:10;21.00;99.90
34135;DHT22;20410;55.578;12.968;2023-06-26T15:29:35;21.10;99.90
34135;DHT22;20410;55.578;12.968;2023-06-26T15:32:01;21.10;99.90
34135;DHT22;20410;55.578;12.968;2023-06-26T15:34:27;21.20;99.90
34135;DHT22;20410;55.578;12.968;2023-06-26T15:36:52;21.30;99.90
34135;DHT22;20410;55.578;12.968;2023-06-26T15:39:18;21.50;99.90
34135;DHT22;20410;55.578;12.968;2023-06-26T15:41:44;21.60;99.90
34135;DHT22;20410;55.578;12.968;2023-06-26T15:44:10;21.60;99.50
34135;DHT22;20410;55.578;12.968;2023-06-26T15:46:36;21.80;99.90
34135;DHT22;20410;55.578;12.968;2023-06-26T15:49:02;21.80;99.90